sensor_id;sensor_type;location;lat;lon;timestamp;P1;durP1;ratioP1;P2;durP2;ratioP2
32130;SDS011;18639;50.716;7.086;2022-07-23T00:01:49;15.88;;;7.15;;
32130;SDS011;18639;50.716;7.086;2022-07-23T00:04:14;13.10;;;6.82;;
32130;SDS011;18639;50.716;7.086;2022-07-23T00:06:40;15.80;;;6.82;;
32130;SDS011;18639;50.716;7.086;2022-07-23T00:09:05;17.60;;;7.43;;
32130;SDS011;18639;50.716;7.086;2022-07-23T00:11:30;12.77;;;6.80;;
32130;SDS011;18639;50.716;7.086;2022-07-23T00:13:56;17.85;;;7.22;;
32130;SDS011;18639;50.716;7.086;2022-07-23T00:16:22;15.13;;;6.90;;
32130;SDS011;18639;50.716;7.086;2022-07-23T00:18:47;19.55;;;8.02;;
32130;SDS011;18639;50.716;7.086;2022-07-23T00:21:13;14.82;;;7.47;;
32130;SDS011;18639;50.716;7.086;2022-07-23T00:23:38;19.55;;;7.82;;
32130;SDS011;18639;50.716;7.086;2022-07-23T00:26:03;19.38;;;7.30;;
32130;SDS011;18639;50.716;7.086;2022-07-23T00:28:29;17.52;;;7.50;;
32130;SDS011;18639;50.716;7.086;2022-07-23T00:30:54;16.08;;;7.45;;
32130;SDS011;18639;50.716;7.086;2022-07-23T00:33:19;15.45;;;7.38;;
32130;SDS011;18639;50.716;7.086;2022-07-23T00:35:45;19.42;;;7.43;;
32130;SDS011;18639;50.716;7.086;2022-07-23T00:38:10;16.10;;;7.97;;
32130;SDS011;18639;50.716;7.086;2022-07-23T00:40:36;17.10;;;7.07;;
32130;SDS011;18639;50.716;7.086;2022-07-23T00:43:02;18.85;;;7.25;;
32130;SDS011;18639;50.716;7.086;2022-07-23T00:45:28;14.38;;;7.22;;
32130;SDS011;18639;50.716;7.086;2022-07-23T00:47:54;14.38;;;7.40;;
32130;SDS011;18639;50.716;7.086;2022-07-23T00:50:19;18.45;;;7.85;;
32130;SDS011;18639;50.716;7.086;2022-07-23T00:52:45;18.98;;;7.78;;
32130;SDS011;18639;50.716;7.086;2022-07-23T00:55:11;16.27;;;7.50;;
32130;SDS011;18639;50.716;7.086;2022-07-23T00:57:37;25.98;;;8.50;;
32130;SDS011;18639;50.716;7.086;2022-07-23T01:00:04;16.83;;;8.00;;
32130;SDS011;18639;50.716;7.086;2022-07-23T01:02:31;19.08;;;7.70;;
32130;SDS011;18639;50.716;7.086;2022-07-23T01:04:57;19.20;;;8.57;;
32130;SDS011;18639;50.716;7.086;2022-07-23T01:07:22;17.73;;;8.15;;
32130;SDS011;18639;50.716;7.086;2022-07-23T01:09:49;17.42;;;8.45;;
32130;SDS011;18639;50.716;7.086;2022-07-23T01:12:15;19.85;;;8.40;;
32130;SDS011;18639;50.716;7.086;2022-07-23T01:14:41;19.30;;;8.00;;
32130;SDS011;18639;50.716;7.086;2022-07-23T01:17:06;19.05;;;8.77;;
32130;SDS011;18639;50.716;7.086;2022-07-23T01:19:31;21.60;;;8.82;;
32130;SDS011;18639;50.716;7.086;2022-07-23T01:21:57;20.33;;;8.90;;
32130;SDS011;18639;50.716;7.086;2022-07-23T01:24:23;19.80;;;8.13;;
32130;SDS011;18639;50.716;7.086;2022-07-23T01:26:49;21.58;;;7.43;;
32130;SDS011;18639;50.716;7.086;2022-07-23T01:29:14;21.17;;;8.75;;
32130;SDS011;18639;50.716;7.086;2022-07-23T01:31:40;18.27;;;8.80;;
32130;SDS011;18639;50.716;7.086;2022-07-23T01:34:06;21.10;;;9.02;;
32130;SDS011;18639;50.716;7.086;2022-07-23T01:36:32;21.33;;;9.07;;
32130;SDS011;18639;50.716;7.086;2022-07-23T01:38:58;22.45;;;9.27;;
32130;SDS011;18639;50.716;7.086;2022-07-23T01:41:23;22.45;;;10.00;;
32130;SDS011;18639;50.716;7.086;2022-07-23T01:43:48;21.60;;;9.35;;
32130;SDS011;18639;50.716;7.086;2022-07-23T01:46:14;17.73;;;8.57;;
32130;SDS011;18639;50.716;7.086;2022-07-23T01:48:40;23.58;;;8.63;;
32130;SDS011;18639;50.716;7.086;2022-07-23T01:51:06;23.00;;;9.05;;
32130;SDS011;18639;50.716;7.086;2022-07-23T01:53:32;21.73;;;9.27;;
32130;SDS011;18639;50.716;7.086;2022-07-23T01:55:58;22.77;;;8.65;;
32130;SDS011;18639;50.716;7.086;2022-07-23T01:58:24;18.15;;;8.02;;
32130;SDS011;18639;50.716;7.086;2022-07-23T02:00:50;21.80;;;8.93;;
32130;SDS011;18639;50.716;7.086;2022-07-23T02:03:15;23.77;;;9.43;;
32130;SDS011;18639;50.716;7.086;2022-07-23T02:05:41;16.85;;;9.00;;
32130;SDS011;18639;50.716;7.086;2022-07-23T02:08:06;22.45;;;9.75;;
32130;SDS011;18639;50.716;7.086;2022-07-23T02:10:31;19.55;;;8.45;;
32130;SDS011;18639;50.716;7.086;2022-07-23T02:12:56;21.90;;;8.00;;
32130;SDS011;18639;50.716;7.086;2022-07-23T02:15:22;20.38;;;8.75;;
32130;SDS011;18639;50.716;7.086;2022-07-23T02:17:47;19.20;;;8.88;;
32130;SDS011;18639;50.716;7.086;2022-07-23T02:20:12;29.17;;;9.75;;
32130;SDS011;18639;50.716;7.086;2022-07-23T02:25:07;20.58;;;8.85;;
32130;SDS011;18639;50.716;7.086;2022-07-23T02:27:33;21.35;;;9.15;;
32130;SDS011;18639;50.716;7.086;2022-07-23T02:29:59;19.85;;;8.73;;
32130;SDS011;18639;50.716;7.086;2022-07-23T02:32:24;22.83;;;9.15;;
32130;SDS011;18639;50.716;7.086;2022-07-23T02:34:50;20.95;;;9.05;;
32130;SDS011;18639;50.716;7.086;2022-07-23T02:37:16;25.27;;;9.57;;
32130;SDS011;18639;50.716;7.086;2022-07-23T02:39:41;20.73;;;8.55;;
32130;SDS011;18639;50.716;7.086;2022-07-23T02:42:06;24.42;;;8.85;;
32130;SDS011;18639;50.716;7.086;2022-07-23T02:44:32;23.77;;;8.82;;
32130;SDS011;18639;50.716;7.086;2022-07-23T02:46:57;20.73;;;8.55;;
32130;SDS011;18639;50.716;7.086;2022-07-23T02:49:22;19.95;;;8.10;;
32130;SDS011;18639;50.716;7.086;2022-07-23T02:51:48;19.63;;;9.10;;
32130;SDS011;18639;50.716;7.086;2022-07-23T02:54:13;21.15;;;9.48;;
32130;SDS011;18639;50.716;7.086;2022-07-23T02:56:38;19.80;;;9.43;;
32130;SDS011;18639;50.716;7.086;2022-07-23T02:59:04;22.45;;;9.07;;
32130;SDS011;18639;50.716;7.086;2022-07-23T03:01:29;19.25;;;9.25;;
32130;SDS011;18639;50.716;7.086;2022-07-23T03:03:54;21.20;;;8.73;;
32130;SDS011;18639;50.716;7.086;2022-07-23T03:06:20;22.90;;;8.70;;
32130;SDS011;18639;50.716;7.086;2022-07-23T03:08:45;19.75;;;8.13;;
32130;SDS011;18639;50.716;7.086;2022-07-23T03:11:10;22.17;;;8.57;;
32130;SDS011;18639;50.716;7.086;2022-07-23T03:13:39;20.10;;;9.27;;
32130;SDS011;18639;50.716;7.086;2022-07-23T03:16:05;20.48;;;9.00;;
32130;SDS011;18639;50.716;7.086;2022-07-23T03:18:31;21.38;;;8.35;;
32130;SDS011;18639;50.716;7.086;2022-07-23T03:20:56;19.73;;;8.07;;
32130;SDS011;18639;50.716;7.086;2022-07-23T03:23:22;17.70;;;7.18;;
32130;SDS011;18639;50.716;7.086;2022-07-23T03:25:47;27.08;;;8.80;;
32130;SDS011;18639;50.716;7.086;2022-07-23T03:28:13;13.50;;;7.13;;
32130;SDS011;18639;50.716;7.086;2022-07-23T03:30:40;15.48;;;6.88;;
32130;SDS011;18639;50.716;7.086;2022-07-23T03:33:06;18.13;;;7.25;;
32130;SDS011;18639;50.716;7.086;2022-07-23T03:35:31;15.88;;;6.72;;
32130;SDS011;18639;50.716;7.086;2022-07-23T03:37:56;17.17;;;7.05;;
32130;SDS011;18639;50.716;7.086;2022-07-23T03:40:22;13.80;;;6.40;;
32130;SDS011;18639;50.716;7.086;2022-07-23T03:42:47;15.55;;;6.55;;
32130;SDS011;18639;50.716;7.086;2022-07-23T03:45:12;13.25;;;6.22;;
32130;SDS011;18639;50.716;7.086;2022-07-23T03:47:38;15.95;;;6.63;;
32130;SDS011;18639;50.716;7.086;2022-07-23T03:50:04;14.05;;;6.25;;
32130;SDS011;18639;50.716;7.086;2022-07-23T03:52:30;11.88;;;6.20;;
32130;SDS011;18639;50.716;7.086;2022-07-23T03:54:55;12.73;;;6.20;;
32130;SDS011;18639;50.716;7.086;2022-07-23T03:57:20;13.20;;;6.13;;
32130;SDS011;18639;50.716;7.086;2022-07-23T03:59:45;12.43;;;5.65;;
32130;SDS011;18639;50.716;7.086;2022-07-23T04:02:11;15.45;;;6.40;;
32130;SDS011;18639;50.716;7.086;2022-07-23T04:04:36;15.68;;;6.13;;
32130;SDS011;18639;50.716;7.086;2022-07-23T04:07:01;12.38;;;5.78;;
32130;SDS011;18639;50.716;7.086;2022-07-23T04:09:27;12.65;;;6.22;;
32130;SDS011;18639;50.716;7.086;2022-07-23T04:11:55;16.10;;;6.25;;
32130;SDS011;18639;50.716;7.086;2022-07-23T04:16:51;13.82;;;6.43;;
32130;SDS011;18639;50.716;7.086;2022-07-23T04:19:16;12.02;;;6.15;;
32130;SDS011;18639;50.716;7.086;2022-07-23T04:21:41;12.63;;;5.57;;
32130;SDS011;18639;50.716;7.086;2022-07-23T04:24:08;12.50;;;6.10;;
32130;SDS011;18639;50.716;7.086;2022-07-23T04:26:33;14.80;;;5.93;;
32130;SDS011;18639;50.716;7.086;2022-07-23T04:28:58;12.23;;;5.45;;
32130;SDS011;18639;50.716;7.086;2022-07-23T04:31:24;13.73;;;5.72;;
32130;SDS011;18639;50.716;7.086;2022-07-23T04:33:49;17.23;;;6.43;;
32130;SDS011;18639;50.716;7.086;2022-07-23T04:36:14;18.38;;;6.82;;
32130;SDS011;18639;50.716;7.086;2022-07-23T04:38:39;18.25;;;6.57;;
32130;SDS011;18639;50.716;7.086;2022-07-23T04:41:05;14.65;;;6.57;;
32130;SDS011;18639;50.716;7.086;2022-07-23T04:43:30;17.23;;;6.93;;
32130;SDS011;18639;50.716;7.086;2022-07-23T04:45:55;14.98;;;6.95;;
32130;SDS011;18639;50.716;7.086;2022-07-23T04:48:22;14.07;;;7.05;;
32130;SDS011;18639;50.716;7.086;2022-07-23T04:50:47;22.75;;;11.52;;
32130;SDS011;18639;50.716;7.086;2022-07-23T04:53:12;16.25;;;7.70;;
32130;SDS011;18639;50.716;7.086;2022-07-23T04:55:37;15.70;;;7.72;;
32130;SDS011;18639;50.716;7.086;2022-07-23T04:58:03;18.73;;;7.07;;
32130;SDS011;18639;50.716;7.086;2022-07-23T05:00:28;18.52;;;7.15;;
32130;SDS011;18639;50.716;7.086;2022-07-23T05:02:53;14.68;;;6.63;;
32130;SDS011;18639;50.716;7.086;2022-07-23T05:05:19;15.70;;;7.03;;
32130;SDS011;18639;50.716;7.086;2022-07-23T05:07:44;15.48;;;7.53;;
32130;SDS011;18639;50.716;7.086;2022-07-23T05:10:09;16.40;;;6.70;;
32130;SDS011;18639;50.716;7.086;2022-07-23T05:12:34;13.80;;;6.60;;
32130;SDS011;18639;50.716;7.086;2022-07-23T05:15:00;12.90;;;6.53;;
32130;SDS011;18639;50.716;7.086;2022-07-23T05:17:25;16.38;;;7.35;;
32130;SDS011;18639;50.716;7.086;2022-07-23T05:19:50;17.88;;;7.15;;
32130;SDS011;18639;50.716;7.086;2022-07-23T05:22:15;17.70;;;7.15;;
32130;SDS011;18639;50.716;7.086;2022-07-23T05:24:41;17.52;;;6.95;;
32130;SDS011;18639;50.716;7.086;2022-07-23T05:27:07;20.05;;;7.55;;
32130;SDS011;18639;50.716;7.086;2022-07-23T05:29:33;21.50;;;7.78;;
32130;SDS011;18639;50.716;7.086;2022-07-23T05:31:58;17.02;;;7.78;;
32130;SDS011;18639;50.716;7.086;2022-07-23T05:34:23;17.27;;;7.25;;
32130;SDS011;18639;50.716;7.086;2022-07-23T05:36:49;19.10;;;7.68;;
32130;SDS011;18639;50.716;7.086;2022-07-23T05:39:14;19.15;;;8.27;;
32130;SDS011;18639;50.716;7.086;2022-07-23T05:41:39;23.70;;;7.75;;
32130;SDS011;18639;50.716;7.086;2022-07-23T05:44:04;18.45;;;7.78;;
32130;SDS011;18639;50.716;7.086;2022-07-23T05:46:30;16.27;;;7.38;;
32130;SDS011;18639;50.716;7.086;2022-07-23T05:48:55;17.88;;;7.28;;
32130;SDS011;18639;50.716;7.086;2022-07-23T05:51:23;19.70;;;8.40;;
32130;SDS011;18639;50.716;7.086;2022-07-23T05:53:49;22.98;;;7.55;;
32130;SDS011;18639;50.716;7.086;2022-07-23T05:56:15;19.15;;;8.38;;
32130;SDS011;18639;50.716;7.086;2022-07-23T05:58:41;17.77;;;7.03;;
32130;SDS011;18639;50.716;7.086;2022-07-23T06:01:06;19.77;;;7.18;;
32130;SDS011;18639;50.716;7.086;2022-07-23T06:03:31;19.23;;;7.85;;
32130;SDS011;18639;50.716;7.086;2022-07-23T06:05:57;18.55;;;7.90;;
32130;SDS011;18639;50.716;7.086;2022-07-23T06:08:22;18.60;;;7.68;;
32130;SDS011;18639;50.716;7.086;2022-07-23T06:10:47;19.73;;;8.50;;
32130;SDS011;18639;50.716;7.086;2022-07-23T06:13:12;16.95;;;7.25;;
32130;SDS011;18639;50.716;7.086;2022-07-23T06:15:38;19.83;;;7.82;;
32130;SDS011;18639;50.716;7.086;2022-07-23T06:18:03;19.75;;;7.78;;
32130;SDS011;18639;50.716;7.086;2022-07-23T06:20:28;18.70;;;7.20;;
32130;SDS011;18639;50.716;7.086;2022-07-23T06:22:54;21.30;;;7.80;;
32130;SDS011;18639;50.716;7.086;2022-07-23T06:25:19;19.27;;;7.55;;
32130;SDS011;18639;50.716;7.086;2022-07-23T06:27:45;19.92;;;8.05;;
32130;SDS011;18639;50.716;7.086;2022-07-23T06:30:11;20.40;;;7.25;;
32130;SDS011;18639;50.716;7.086;2022-07-23T06:32:37;19.90;;;7.75;;
32130;SDS011;18639;50.716;7.086;2022-07-23T06:35:02;17.67;;;7.95;;
32130;SDS011;18639;50.716;7.086;2022-07-23T06:37:27;20.85;;;7.93;;
32130;SDS011;18639;50.716;7.086;2022-07-23T06:39:53;20.73;;;8.02;;
32130;SDS011;18639;50.716;7.086;2022-07-23T06:42:18;17.65;;;7.70;;
32130;SDS011;18639;50.716;7.086;2022-07-23T06:44:43;20.52;;;8.07;;
32130;SDS011;18639;50.716;7.086;2022-07-23T06:47:08;20.80;;;7.40;;
32130;SDS011;18639;50.716;7.086;2022-07-23T06:49:34;17.80;;;7.78;;
32130;SDS011;18639;50.716;7.086;2022-07-23T06:51:59;19.00;;;6.82;;
32130;SDS011;18639;50.716;7.086;2022-07-23T06:54:24;15.90;;;6.53;;
32130;SDS011;18639;50.716;7.086;2022-07-23T06:56:50;20.23;;;8.15;;
32130;SDS011;18639;50.716;7.086;2022-07-23T06:59:15;14.80;;;6.70;;
32130;SDS011;18639;50.716;7.086;2022-07-23T07:01:40;15.60;;;6.88;;
32130;SDS011;18639;50.716;7.086;2022-07-23T07:04:05;18.63;;;6.70;;
32130;SDS011;18639;50.716;7.086;2022-07-23T07:06:31;16.85;;;7.18;;
32130;SDS011;18639;50.716;7.086;2022-07-23T07:08:56;16.65;;;7.15;;
32130;SDS011;18639;50.716;7.086;2022-07-23T07:11:22;15.50;;;6.50;;
32130;SDS011;18639;50.716;7.086;2022-07-23T07:13:48;15.32;;;7.13;;
32130;SDS011;18639;50.716;7.086;2022-07-23T07:16:14;13.30;;;5.63;;
32130;SDS011;18639;50.716;7.086;2022-07-23T07:18:39;15.80;;;5.88;;
32130;SDS011;18639;50.716;7.086;2022-07-23T07:21:04;13.38;;;6.07;;
32130;SDS011;18639;50.716;7.086;2022-07-23T07:23:29;15.48;;;6.35;;
32130;SDS011;18639;50.716;7.086;2022-07-23T07:25:55;14.07;;;5.43;;
32130;SDS011;18639;50.716;7.086;2022-07-23T07:28:20;12.50;;;5.70;;
32130;SDS011;18639;50.716;7.086;2022-07-23T07:30:45;13.77;;;5.80;;
32130;SDS011;18639;50.716;7.086;2022-07-23T07:33:11;14.65;;;5.28;;
32130;SDS011;18639;50.716;7.086;2022-07-23T07:35:36;12.63;;;5.15;;
32130;SDS011;18639;50.716;7.086;2022-07-23T07:38:01;10.65;;;5.00;;
32130;SDS011;18639;50.716;7.086;2022-07-23T07:40:27;16.52;;;4.57;;
32130;SDS011;18639;50.716;7.086;2022-07-23T07:42:53;9.52;;;4.07;;
32130;SDS011;18639;50.716;7.086;2022-07-23T07:45:20;11.43;;;4.72;;
32130;SDS011;18639;50.716;7.086;2022-07-23T07:47:46;8.77;;;4.03;;
32130;SDS011;18639;50.716;7.086;2022-07-23T07:50:11;9.75;;;4.18;;
32130;SDS011;18639;50.716;7.086;2022-07-23T07:52:37;9.68;;;4.28;;
32130;SDS011;18639;50.716;7.086;2022-07-23T07:55:06;10.88;;;4.28;;
32130;SDS011;18639;50.716;7.086;2022-07-23T07:57:33;10.95;;;4.60;;
32130;SDS011;18639;50.716;7.086;2022-07-23T07:59:59;10.65;;;4.30;;
32130;SDS011;18639;50.716;7.086;2022-07-23T08:02:25;10.65;;;4.53;;
32130;SDS011;18639;50.716;7.086;2022-07-23T08:04:50;13.68;;;4.93;;
32130;SDS011;18639;50.716;7.086;2022-07-23T08:07:16;14.90;;;4.88;;
32130;SDS011;18639;50.716;7.086;2022-07-23T08:09:41;10.55;;;4.75;;
32130;SDS011;18639;50.716;7.086;2022-07-23T08:12:07;11.68;;;5.00;;
32130;SDS011;18639;50.716;7.086;2022-07-23T08:14:32;13.02;;;5.30;;
32130;SDS011;18639;50.716;7.086;2022-07-23T08:16:58;9.00;;;4.88;;
32130;SDS011;18639;50.716;7.086;2022-07-23T08:19:23;12.68;;;5.30;;
32130;SDS011;18639;50.716;7.086;2022-07-23T08:21:48;13.68;;;6.00;;
32130;SDS011;18639;50.716;7.086;2022-07-23T08:24:14;11.77;;;5.28;;
32130;SDS011;18639;50.716;7.086;2022-07-23T08:26:39;10.40;;;5.13;;
32130;SDS011;18639;50.716;7.086;2022-07-23T08:29:04;15.35;;;5.88;;
32130;SDS011;18639;50.716;7.086;2022-07-23T08:31:30;13.93;;;6.63;;
32130;SDS011;18639;50.716;7.086;2022-07-23T08:33:57;13.15;;;6.20;;
32130;SDS011;18639;50.716;7.086;2022-07-23T08:36:23;12.82;;;6.07;;
32130;SDS011;18639;50.716;7.086;2022-07-23T08:38:48;12.93;;;6.07;;
32130;SDS011;18639;50.716;7.086;2022-07-23T08:41:13;12.20;;;5.85;;
32130;SDS011;18639;50.716;7.086;2022-07-23T08:43:40;15.27;;;5.68;;
32130;SDS011;18639;50.716;7.086;2022-07-23T08:46:05;12.32;;;5.38;;
32130;SDS011;18639;50.716;7.086;2022-07-23T08:48:32;10.90;;;5.32;;
32130;SDS011;18639;50.716;7.086;2022-07-23T08:51:00;14.13;;;6.63;;
32130;SDS011;18639;50.716;7.086;2022-07-23T08:53:27;12.07;;;5.15;;
32130;SDS011;18639;50.716;7.086;2022-07-23T08:55:57;14.75;;;6.43;;
32130;SDS011;18639;50.716;7.086;2022-07-23T08:58:26;11.43;;;5.03;;
32130;SDS011;18639;50.716;7.086;2022-07-23T09:00:52;12.48;;;6.45;;
32130;SDS011;18639;50.716;7.086;2022-07-23T09:03:22;12.25;;;6.03;;
32130;SDS011;18639;50.716;7.086;2022-07-23T09:05:49;12.15;;;5.72;;
32130;SDS011;18639;50.716;7.086;2022-07-23T09:08:16;10.70;;;5.47;;
32130;SDS011;18639;50.716;7.086;2022-07-23T09:16:27;19.90;;;6.72;;
32130;SDS011;18639;50.716;7.086;2022-07-23T09:18:56;12.63;;;6.40;;
32130;SDS011;18639;50.716;7.086;2022-07-23T09:21:25;10.60;;;5.60;;
32130;SDS011;18639;50.716;7.086;2022-07-23T09:26:37;14.60;;;6.20;;
32130;SDS011;18639;50.716;7.086;2022-07-23T09:29:07;12.98;;;6.80;;
32130;SDS011;18639;50.716;7.086;2022-07-23T09:31:41;12.85;;;6.38;;
32130;SDS011;18639;50.716;7.086;2022-07-23T09:34:28;13.38;;;6.18;;
32130;SDS011;18639;50.716;7.086;2022-07-23T09:36:56;12.15;;;5.88;;
32130;SDS011;18639;50.716;7.086;2022-07-23T09:39:27;12.35;;;5.50;;
32130;SDS011;18639;50.716;7.086;2022-07-23T09:41:55;11.43;;;5.28;;
32130;SDS011;18639;50.716;7.086;2022-07-23T09:44:21;8.50;;;4.65;;
32130;SDS011;18639;50.716;7.086;2022-07-23T09:46:50;11.73;;;6.35;;
32130;SDS011;18639;50.716;7.086;2022-07-23T09:49:22;9.05;;;5.22;;
32130;SDS011;18639;50.716;7.086;2022-07-23T09:51:55;11.63;;;6.18;;
32130;SDS011;18639;50.716;7.086;2022-07-23T09:57:03;9.95;;;5.82;;
32130;SDS011;18639;50.716;7.086;2022-07-23T09:59:36;12.63;;;6.00;;
32130;SDS011;18639;50.716;7.086;2022-07-23T10:02:04;12.60;;;5.70;;
32130;SDS011;18639;50.716;7.086;2022-07-23T10:04:30;12.85;;;5.95;;
32130;SDS011;18639;50.716;7.086;2022-07-23T10:06:57;11.98;;;5.25;;
32130;SDS011;18639;50.716;7.086;2022-07-23T10:09:26;9.77;;;5.78;;
32130;SDS011;18639;50.716;7.086;2022-07-23T10:11:57;11.50;;;5.90;;
32130;SDS011;18639;50.716;7.086;2022-07-23T10:14:43;8.52;;;4.68;;
32130;SDS011;18639;50.716;7.086;2022-07-23T10:17:09;9.65;;;5.28;;
32130;SDS011;18639;50.716;7.086;2022-07-23T10:19:34;10.40;;;5.47;;
32130;SDS011;18639;50.716;7.086;2022-07-23T10:22:04;9.73;;;5.40;;
32130;SDS011;18639;50.716;7.086;2022-07-23T10:30:16;6.88;;;4.10;;
32130;SDS011;18639;50.716;7.086;2022-07-23T10:33:09;9.35;;;4.97;;
32130;SDS011;18639;50.716;7.086;2022-07-23T10:35:52;11.27;;;4.82;;
32130;SDS011;18639;50.716;7.086;2022-07-23T10:41:07;8.80;;;5.10;;
32130;SDS011;18639;50.716;7.086;2022-07-23T10:43:32;10.00;;;4.63;;
32130;SDS011;18639;50.716;7.086;2022-07-23T10:46:21;9.40;;;5.18;;
32130;SDS011;18639;50.716;7.086;2022-07-23T10:49:20;8.32;;;4.95;;
32130;SDS011;18639;50.716;7.086;2022-07-23T10:54:49;7.53;;;4.43;;
32130;SDS011;18639;50.716;7.086;2022-07-23T10:57:21;10.98;;;4.60;;
32130;SDS011;18639;50.716;7.086;2022-07-23T11:02:25;7.82;;;4.30;;
32130;SDS011;18639;50.716;7.086;2022-07-23T11:04:52;9.43;;;5.35;;
32130;SDS011;18639;50.716;7.086;2022-07-23T11:07:18;9.00;;;4.57;;
32130;SDS011;18639;50.716;7.086;2022-07-23T11:09:44;8.43;;;4.60;;
32130;SDS011;18639;50.716;7.086;2022-07-23T11:17:30;9.35;;;4.85;;
32130;SDS011;18639;50.716;7.086;2022-07-23T11:22:34;7.15;;;4.53;;
32130;SDS011;18639;50.716;7.086;2022-07-23T11:25:00;12.77;;;5.75;;
32130;SDS011;18639;50.716;7.086;2022-07-23T11:35:37;9.85;;;5.13;;
32130;SDS011;18639;50.716;7.086;2022-07-23T11:38:08;6.60;;;4.10;;
32130;SDS011;18639;50.716;7.086;2022-07-23T11:40:36;9.02;;;4.10;;
32130;SDS011;18639;50.716;7.086;2022-07-23T11:43:03;9.18;;;4.63;;
32130;SDS011;18639;50.716;7.086;2022-07-23T11:48:06;9.73;;;5.68;;
32130;SDS011;18639;50.716;7.086;2022-07-23T11:50:34;7.28;;;4.63;;
32130;SDS011;18639;50.716;7.086;2022-07-23T11:53:00;10.15;;;5.65;;
32130;SDS011;18639;50.716;7.086;2022-07-23T11:55:26;11.93;;;6.13;;
32130;SDS011;18639;50.716;7.086;2022-07-23T11:57:53;8.23;;;4.82;;
32130;SDS011;18639;50.716;7.086;2022-07-23T12:00:20;10.18;;;5.63;;
32130;SDS011;18639;50.716;7.086;2022-07-23T12:02:49;11.43;;;5.20;;
32130;SDS011;18639;50.716;7.086;2022-07-23T12:05:17;7.00;;;4.45;;
32130;SDS011;18639;50.716;7.086;2022-07-23T12:07:45;9.77;;;5.20;;
32130;SDS011;18639;50.716;7.086;2022-07-23T12:10:18;8.02;;;4.85;;
32130;SDS011;18639;50.716;7.086;2022-07-23T12:12:47;9.90;;;5.13;;
32130;SDS011;18639;50.716;7.086;2022-07-23T12:15:18;10.10;;;5.93;;
32130;SDS011;18639;50.716;7.086;2022-07-23T12:17:47;10.18;;;5.07;;
32130;SDS011;18639;50.716;7.086;2022-07-23T12:20:15;10.40;;;5.05;;
32130;SDS011;18639;50.716;7.086;2022-07-23T12:22:44;9.75;;;5.35;;
32130;SDS011;18639;50.716;7.086;2022-07-23T12:25:13;13.40;;;5.07;;
32130;SDS011;18639;50.716;7.086;2022-07-23T12:27:41;8.38;;;5.18;;
32130;SDS011;18639;50.716;7.086;2022-07-23T12:30:21;8.23;;;4.68;;
32130;SDS011;18639;50.716;7.086;2022-07-23T12:32:52;6.40;;;4.15;;
32130;SDS011;18639;50.716;7.086;2022-07-23T12:35:18;6.32;;;4.00;;
32130;SDS011;18639;50.716;7.086;2022-07-23T12:37:45;7.78;;;3.72;;
32130;SDS011;18639;50.716;7.086;2022-07-23T12:43:00;7.68;;;4.10;;
32130;SDS011;18639;50.716;7.086;2022-07-23T12:45:28;7.82;;;4.10;;
32130;SDS011;18639;50.716;7.086;2022-07-23T12:48:07;10.45;;;4.22;;
32130;SDS011;18639;50.716;7.086;2022-07-23T12:53:04;8.07;;;4.70;;
32130;SDS011;18639;50.716;7.086;2022-07-23T12:55:37;8.07;;;4.10;;
32130;SDS011;18639;50.716;7.086;2022-07-23T12:58:04;7.70;;;4.30;;
32130;SDS011;18639;50.716;7.086;2022-07-23T13:03:26;5.45;;;3.67;;
32130;SDS011;18639;50.716;7.086;2022-07-23T13:05:56;6.78;;;3.65;;
32130;SDS011;18639;50.716;7.086;2022-07-23T13:08:23;6.07;;;3.42;;
32130;SDS011;18639;50.716;7.086;2022-07-23T13:10:49;9.43;;;3.88;;
32130;SDS011;18639;50.716;7.086;2022-07-23T13:13:16;9.90;;;3.75;;
32130;SDS011;18639;50.716;7.086;2022-07-23T13:15:44;7.18;;;3.50;;
32130;SDS011;18639;50.716;7.086;2022-07-23T13:18:09;8.13;;;3.70;;
32130;SDS011;18639;50.716;7.086;2022-07-23T13:20:35;7.20;;;4.13;;
32130;SDS011;18639;50.716;7.086;2022-07-23T13:23:01;6.97;;;3.83;;
32130;SDS011;18639;50.716;7.086;2022-07-23T13:25:27;8.57;;;3.78;;
32130;SDS011;18639;50.716;7.086;2022-07-23T13:27:52;6.15;;;4.00;;
32130;SDS011;18639;50.716;7.086;2022-07-23T13:30:17;8.07;;;4.30;;
32130;SDS011;18639;50.716;7.086;2022-07-23T13:32:43;8.07;;;4.15;;
32130;SDS011;18639;50.716;7.086;2022-07-23T13:35:08;10.77;;;4.60;;
32130;SDS011;18639;50.716;7.086;2022-07-23T13:37:33;8.10;;;4.70;;
32130;SDS011;18639;50.716;7.086;2022-07-23T13:39:59;8.35;;;4.40;;
32130;SDS011;18639;50.716;7.086;2022-07-23T13:42:24;9.85;;;4.65;;
32130;SDS011;18639;50.716;7.086;2022-07-23T13:44:49;11.45;;;4.82;;
32130;SDS011;18639;50.716;7.086;2022-07-23T13:47:15;5.70;;;3.80;;
32130;SDS011;18639;50.716;7.086;2022-07-23T13:49:40;9.98;;;5.28;;
32130;SDS011;18639;50.716;7.086;2022-07-23T13:52:05;7.93;;;5.20;;
32130;SDS011;18639;50.716;7.086;2022-07-23T13:54:31;7.18;;;4.53;;
32130;SDS011;18639;50.716;7.086;2022-07-23T13:56:56;10.63;;;4.80;;
32130;SDS011;18639;50.716;7.086;2022-07-23T13:59:21;7.85;;;4.35;;
32130;SDS011;18639;50.716;7.086;2022-07-23T14:01:46;7.75;;;4.57;;
32130;SDS011;18639;50.716;7.086;2022-07-23T14:04:12;10.23;;;5.07;;
32130;SDS011;18639;50.716;7.086;2022-07-23T14:06:37;10.00;;;4.68;;
32130;SDS011;18639;50.716;7.086;2022-07-23T14:09:02;8.60;;;4.70;;
32130;SDS011;18639;50.716;7.086;2022-07-23T14:11:28;10.40;;;4.97;;
32130;SDS011;18639;50.716;7.086;2022-07-23T14:13:55;9.48;;;4.85;;
32130;SDS011;18639;50.716;7.086;2022-07-23T14:16:21;7.72;;;4.63;;
32130;SDS011;18639;50.716;7.086;2022-07-23T14:18:46;10.32;;;5.15;;
32130;SDS011;18639;50.716;7.086;2022-07-23T14:21:11;9.45;;;5.07;;
32130;SDS011;18639;50.716;7.086;2022-07-23T14:23:37;6.63;;;4.18;;
32130;SDS011;18639;50.716;7.086;2022-07-23T14:26:02;6.78;;;3.88;;
32130;SDS011;18639;50.716;7.086;2022-07-23T14:28:27;8.02;;;4.50;;
32130;SDS011;18639;50.716;7.086;2022-07-23T14:30:53;7.03;;;4.30;;
32130;SDS011;18639;50.716;7.086;2022-07-23T14:33:18;10.52;;;4.13;;
32130;SDS011;18639;50.716;7.086;2022-07-23T14:35:44;7.43;;;3.85;;
32130;SDS011;18639;50.716;7.086;2022-07-23T14:38:09;5.85;;;3.95;;
32130;SDS011;18639;50.716;7.086;2022-07-23T14:40:35;5.65;;;3.67;;
32130;SDS011;18639;50.716;7.086;2022-07-23T14:43:00;6.78;;;4.13;;
32130;SDS011;18639;50.716;7.086;2022-07-23T14:45:25;7.63;;;4.05;;
32130;SDS011;18639;50.716;7.086;2022-07-23T14:47:51;7.38;;;3.83;;
32130;SDS011;18639;50.716;7.086;2022-07-23T14:50:16;7.93;;;3.40;;
32130;SDS011;18639;50.716;7.086;2022-07-23T14:52:41;5.65;;;3.40;;
32130;SDS011;18639;50.716;7.086;2022-07-23T14:55:07;11.05;;;3.92;;
32130;SDS011;18639;50.716;7.086;2022-07-23T14:57:33;6.68;;;3.53;;
32130;SDS011;18639;50.716;7.086;2022-07-23T14:59:58;9.75;;;3.70;;
32130;SDS011;18639;50.716;7.086;2022-07-23T15:02:23;6.30;;;3.20;;
32130;SDS011;18639;50.716;7.086;2022-07-23T15:04:49;6.97;;;3.30;;
32130;SDS011;18639;50.716;7.086;2022-07-23T15:07:14;8.18;;;4.40;;
32130;SDS011;18639;50.716;7.086;2022-07-23T15:09:39;7.90;;;3.50;;
32130;SDS011;18639;50.716;7.086;2022-07-23T15:12:05;6.70;;;3.67;;
32130;SDS011;18639;50.716;7.086;2022-07-23T15:14:30;10.57;;;3.83;;
32130;SDS011;18639;50.716;7.086;2022-07-23T15:16:55;8.52;;;3.95;;
32130;SDS011;18639;50.716;7.086;2022-07-23T15:19:21;8.13;;;3.72;;
32130;SDS011;18639;50.716;7.086;2022-07-23T15:21:46;5.75;;;3.70;;
32130;SDS011;18639;50.716;7.086;2022-07-23T15:24:11;5.80;;;3.35;;
32130;SDS011;18639;50.716;7.086;2022-07-23T15:26:37;8.20;;;3.50;;
32130;SDS011;18639;50.716;7.086;2022-07-23T15:29:02;5.80;;;3.67;;
32130;SDS011;18639;50.716;7.086;2022-07-23T15:31:28;5.90;;;3.03;;